createdAt,value
2017-08-25T00:01:06.626Z,100631
2017-08-25T00:06:09.890Z,100624
2017-08-25T00:11:13.128Z,100624
2017-08-25T00:16:16.316Z,100634
2017-08-25T00:21:19.503Z,100627
2017-08-25T00:26:22.697Z,100619
2017-08-25T00:31:25.927Z,100620
2017-08-25T00:36:29.119Z,100617
2017-08-25T00:41:32.285Z,100622
2017-08-25T00:46:35.479Z,100617
2017-08-25T00:51:38.641Z,100622
2017-08-25T00:56:41.825Z,100615
2017-08-25T01:01:45.029Z,100609
2017-08-25T01:06:48.296Z,100617
2017-08-25T01:11:51.476Z,100614
2017-08-25T01:16:54.673Z,100609
2017-08-25T01:21:57.896Z,100609
2017-08-25T01:27:01.057Z,100607
2017-08-25T01:32:04.664Z,100608
2017-08-25T01:37:07.848Z,100609
2017-08-25T01:42:11.013Z,100609
2017-08-25T01:47:14.185Z,100621
2017-08-25T01:52:17.433Z,100623
2017-08-25T01:57:20.623Z,100616
2017-08-25T02:02:23.809Z,100619
2017-08-25T02:07:27.004Z,100611
2017-08-25T02:12:30.218Z,100627
2017-08-25T02:17:33.432Z,100624
2017-08-25T02:22:36.630Z,100615
2017-08-25T02:27:39.894Z,100613
2017-08-25T02:32:43.101Z,100615
2017-08-25T02:37:46.310Z,100615
2017-08-25T02:42:49.460Z,100616
2017-08-25T02:47:52.697Z,100609
2017-08-25T02:52:55.912Z,100605
2017-08-25T02:57:59.080Z,100607
2017-08-25T03:03:02.268Z,100605
2017-08-25T03:08:05.456Z,100588
2017-08-25T03:13:08.734Z,100600
2017-08-25T03:18:12.099Z,100607
2017-08-25T03:23:15.360Z,100602
2017-08-25T03:28:18.566Z,100604
2017-08-25T03:33:21.910Z,100600
2017-08-25T03:38:25.257Z,100590
2017-08-25T03:43:28.496Z,100605
2017-08-25T03:48:31.678Z,100592
2017-08-25T03:53:34.870Z,100599
2017-08-25T03:58:38.057Z,100605
2017-08-25T04:03:41.266Z,100604
2017-08-25T04:08:44.457Z,100603
2017-08-25T04:13:47.633Z,100608
2017-08-25T04:18:50.895Z,100607
2017-08-25T04:23:54.074Z,100610
2017-08-25T04:28:57.290Z,100612
2017-08-25T04:34:00.501Z,100609
2017-08-25T04:39:03.686Z,100617
2017-08-25T04:44:06.889Z,100620
2017-08-25T04:49:10.079Z,100624
2017-08-25T04:54:13.261Z,100629
2017-08-25T04:59:16.474Z,100625
2017-08-25T05:04:19.667Z,100631
2017-08-25T05:09:22.901Z,100626
2017-08-25T05:14:26.303Z,100625
2017-08-25T05:19:29.478Z,100636
2017-08-25T05:24:32.661Z,100633
2017-08-25T05:29:35.850Z,100629
2017-08-25T05:34:39.031Z,100626
2017-08-25T05:39:42.216Z,100633
2017-08-25T05:44:45.413Z,100625
2017-08-25T05:49:48.590Z,100637
2017-08-25T05:54:51.789Z,100620
2017-08-25T05:59:54.981Z,100614
2017-08-25T06:04:58.174Z,100628
2017-08-25T06:10:01.368Z,100620
2017-08-25T06:15:04.565Z,100618
2017-08-25T06:20:07.761Z,100638
2017-08-25T06:25:10.993Z,100642
2017-08-25T06:30:14.219Z,100651
2017-08-25T06:35:17.505Z,100643
2017-08-25T06:40:20.745Z,100655
2017-08-25T06:45:23.957Z,100655
2017-08-25T06:50:27.181Z,100654
2017-08-25T06:55:30.383Z,100666
2017-08-25T07:00:33.640Z,100672
2017-08-25T07:05:36.895Z,100665
2017-08-25T07:10:40.104Z,100669
2017-08-25T07:15:43.281Z,100674
2017-08-25T07:20:46.488Z,100674
2017-08-25T07:25:49.677Z,100669
2017-08-25T07:30:52.878Z,100679
2017-08-25T07:35:56.120Z,100672
2017-08-25T07:40:59.317Z,100671
2017-08-25T07:46:02.499Z,100671
2017-08-25T07:51:05.989Z,100681
2017-08-25T07:56:09.182Z,100680
2017-08-25T08:01:12.377Z,100665
2017-08-25T08:06:15.585Z,100671
2017-08-25T08:11:18.792Z,100674
2017-08-25T08:16:21.972Z,100674
2017-08-25T08:21:25.170Z,100674
2017-08-25T08:26:28.416Z,100684
2017-08-25T08:31:31.625Z,100673
2017-08-25T08:36:41.237Z,100678
2017-08-25T08:41:44.449Z,100676
2017-08-25T08:46:47.643Z,100684
2017-08-25T08:51:50.875Z,100675
2017-08-25T08:56:54.064Z,100671
2017-08-25T09:01:57.306Z,100670
2017-08-25T09:07:00.508Z,100676
2017-08-25T09:12:03.688Z,100666
2017-08-25T09:17:06.917Z,100683
2017-08-25T09:22:10.104Z,100671
2017-08-25T09:27:13.284Z,100669
2017-08-25T09:32:16.481Z,100668
2017-08-25T09:37:19.678Z,100662
2017-08-25T09:42:22.861Z,100669
2017-08-25T09:47:26.047Z,100669
2017-08-25T09:52:29.211Z,100667
2017-08-25T09:57:32.389Z,100661
2017-08-25T10:02:35.586Z,100665
2017-08-25T10:07:38.790Z,100662
2017-08-25T10:12:41.978Z,100665
2017-08-25T10:17:45.195Z,100660
2017-08-25T10:22:48.427Z,100650
2017-08-25T10:27:51.625Z,100641
2017-08-25T10:32:54.795Z,100642
2017-08-25T10:38:15.988Z,100634
2017-08-25T10:59:27.018Z,100622
2017-08-25T11:04:30.205Z,100618
2017-08-25T11:09:33.391Z,100609
2017-08-25T11:14:36.605Z,100609
2017-08-25T11:19:39.950Z,100602
2017-08-25T11:24:43.144Z,100598
2017-08-25T11:29:46.313Z,100596
2017-08-25T11:34:49.497Z,100589
2017-08-25T11:39:52.678Z,100578
2017-08-25T11:44:55.881Z,100583
2017-08-25T11:49:59.183Z,100587
2017-08-25T11:55:02.529Z,100586
2017-08-25T12:00:05.724Z,100573
2017-08-25T12:05:08.926Z,100581
2017-08-25T12:10:12.124Z,100576
2017-08-25T12:15:15.302Z,100582
2017-08-25T12:20:18.554Z,100577
2017-08-25T12:25:21.765Z,100572
2017-08-25T12:30:25.725Z,100575
2017-08-25T12:35:28.930Z,100581
2017-08-25T12:40:32.324Z,100579
2017-08-25T12:45:35.519Z,100581
2017-08-25T12:50:38.720Z,100557
2017-08-25T12:55:41.943Z,100561
2017-08-25T13:00:45.526Z,100566
2017-08-25T13:05:48.743Z,100552
2017-08-25T13:10:51.928Z,100555
2017-08-25T13:15:55.198Z,100547
2017-08-25T13:20:58.378Z,100549
2017-08-25T13:26:01.566Z,100538
2017-08-25T13:31:04.767Z,100526
2017-08-25T13:36:07.963Z,100526
2017-08-25T13:41:11.179Z,100528
2017-08-25T13:46:14.351Z,100532
2017-08-25T13:51:17.549Z,100520
2017-08-25T13:56:20.721Z,100503
2017-08-25T14:01:23.916Z,100505
2017-08-25T14:06:27.099Z,100493
2017-08-25T14:11:30.279Z,100498
2017-08-25T14:16:33.493Z,100491
2017-08-25T14:21:36.720Z,100476
2017-08-25T14:26:39.918Z,100479
2017-08-25T14:31:43.090Z,100466
2017-08-25T14:36:46.293Z,100470
2017-08-25T14:41:49.497Z,100470
2017-08-25T14:46:52.693Z,100450
2017-08-25T14:51:55.862Z,100444
2017-08-25T14:56:59.065Z,100437
2017-08-25T15:02:02.253Z,100440
2017-08-25T15:07:05.466Z,100434
2017-08-25T15:12:08.704Z,100428
2017-08-25T15:17:11.882Z,100439
2017-08-25T15:22:15.121Z,100438
2017-08-25T15:27:18.332Z,100433
2017-08-25T15:32:21.519Z,100429
2017-08-25T15:37:24.731Z,100433
2017-08-25T15:42:27.916Z,100420
2017-08-25T15:47:31.122Z,100405
2017-08-25T15:52:34.313Z,100415
2017-08-25T15:57:37.509Z,100423
2017-08-25T16:02:40.703Z,100431
2017-08-25T16:07:43.881Z,100447
2017-08-25T16:12:47.087Z,100486
2017-08-25T16:17:50.239Z,100529
2017-08-25T16:22:53.430Z,100476
2017-08-25T16:27:56.913Z,100478
2017-08-25T16:33:00.161Z,100534
2017-08-25T16:38:03.377Z,100524
2017-08-25T16:43:06.595Z,100530
2017-08-25T16:48:09.793Z,100532
2017-08-25T16:53:13.002Z,100536
2017-08-25T16:58:16.201Z,100522
2017-08-25T17:03:19.384Z,100509
2017-08-25T17:08:22.597Z,100482
2017-08-25T17:13:25.779Z,100469
2017-08-25T17:18:29.010Z,100459
2017-08-25T17:23:32.240Z,100442
2017-08-25T17:28:35.740Z,100444
2017-08-25T17:33:38.938Z,100447
2017-08-25T17:38:42.207Z,100445
2017-08-25T17:43:45.627Z,100447
2017-08-25T17:48:48.847Z,100452
2017-08-25T17:53:52.916Z,100447
2017-08-25T17:58:56.173Z,100441
2017-08-25T18:03:59.402Z,100420
2017-08-25T18:09:02.611Z,100423
2017-08-25T18:14:06.115Z,100455
2017-08-25T18:19:09.322Z,100439
2017-08-25T18:24:12.528Z,100423
2017-08-25T18:29:15.720Z,100419
2017-08-25T18:34:18.874Z,100422
2017-08-25T18:39:22.087Z,100433
2017-08-25T18:44:25.546Z,100445
2017-08-25T18:49:28.771Z,100433
2017-08-25T18:54:32.002Z,100440
2017-08-25T18:59:35.195Z,100449
2017-08-25T19:04:38.415Z,100465
2017-08-25T19:09:41.791Z,100457
2017-08-25T19:14:45.007Z,100456
2017-08-25T19:19:48.203Z,100451
2017-08-25T19:24:51.447Z,100453
2017-08-25T19:29:54.688Z,100466
2017-08-25T19:34:57.902Z,100462
2017-08-25T19:40:01.176Z,100463
2017-08-25T19:45:04.393Z,100454
2017-08-25T19:50:07.654Z,100457
2017-08-25T19:55:10.933Z,100457
2017-08-25T20:00:14.146Z,100452
2017-08-25T20:05:17.380Z,100456
2017-08-25T20:10:20.575Z,100441
2017-08-25T20:15:23.810Z,100457
2017-08-25T20:20:27.000Z,100470
2017-08-25T20:25:30.214Z,100461
2017-08-25T20:30:33.419Z,100458
2017-08-25T20:35:36.640Z,100454
2017-08-25T20:40:39.902Z,100452
2017-08-25T20:45:43.100Z,100441
2017-08-25T20:50:46.286Z,100457
2017-08-25T20:55:49.493Z,100453
2017-08-25T21:00:52.671Z,100451
2017-08-25T21:05:55.888Z,100459
2017-08-25T21:10:59.122Z,100453
2017-08-25T21:16:02.323Z,100458
2017-08-25T21:21:05.563Z,100445
2017-08-25T21:26:08.765Z,100464
2017-08-25T21:31:11.988Z,100459
2017-08-25T21:36:15.186Z,100455
2017-08-25T21:41:18.417Z,100464
2017-08-25T21:46:21.638Z,100454
2017-08-25T21:51:24.822Z,100452
2017-08-25T21:56:28.009Z,100460
2017-08-25T22:01:31.191Z,100471
2017-08-25T22:06:34.395Z,100478
2017-08-25T22:11:37.597Z,100472
2017-08-25T22:16:40.803Z,100472
2017-08-25T22:21:44.111Z,100464
2017-08-25T22:26:47.514Z,100450
2017-08-25T22:31:50.693Z,100439
2017-08-25T22:36:53.879Z,100429
2017-08-25T22:41:57.069Z,100427
2017-08-25T22:47:00.265Z,100433
2017-08-25T22:52:03.442Z,100431
2017-08-25T22:57:06.649Z,100447
2017-08-25T23:02:09.814Z,100442
2017-08-25T23:07:13.001Z,100444
2017-08-25T23:12:16.199Z,100432
2017-08-25T23:17:19.423Z,100411
2017-08-25T23:22:22.607Z,100385
2017-08-25T23:27:25.793Z,100395
2017-08-25T23:32:28.995Z,100392
2017-08-25T23:37:32.187Z,100381
2017-08-25T23:42:35.369Z,100381
2017-08-25T23:47:43.496Z,100374
2017-08-25T23:52:46.698Z,100384
2017-08-25T23:57:49.882Z,100378
